CheckWX is a tool to help pilots better visualize weather data.  It is not intended as a substitute for an official pre-flight weather briefing.

20:10:50 UTC

KROS METAR
Rush City Regional Airport
Rush City, Minnesota, USA
Current

15 mins ago

KROS 261956Z AUTO 23003KT 10SM BKN100 OVC120 27/11 A3000 RMK AO2 T02710109
Observed
Jun-26 @ 19:56 UTC
Wind
  • 230° at 3 KTS
Visibility
10 SM
Flight Rules
VFR
Cloud Levels
  • Broken at 10,000' AGL
  • Overcast at 12,000' AGL
Temperature
27°C / 81°F
Dewpoint
11°C / 52°F
Humidity
37%
Altimeter
30" Hg
Pressure
1015.92 hPa
Previous

35 mins ago

KROS 261936Z AUTO 25003KT 10SM BKN110 27/11 A3000 RMK AO2 T02680112
Observed
Jun-26 @ 19:36 UTC
Wind
  • 250° at 3 KTS
Visibility
10 SM
Flight Rules
VFR
Cloud Levels
  • Broken at 11,000' AGL
Temperature
27°C / 81°F
Dewpoint
11°C / 52°F
Humidity
37%
Altimeter
30" Hg
Pressure
1015.92 hPa
Previous

1 hour ago

KROS 261856Z AUTO 23003KT 10SM BKN110 27/11 A3000 RMK AO2 T02710114
Observed
Jun-26 @ 18:56 UTC
Wind
  • 230° at 3 KTS
Visibility
10 SM
Flight Rules
VFR
Cloud Levels
  • Broken at 11,000' AGL
Temperature
27°C / 81°F
Dewpoint
11°C / 52°F
Humidity
37%
Altimeter
30" Hg
Pressure
1015.92 hPa